createdAt,value
2023-06-17T00:03:52.193Z,15.68
2023-06-17T00:08:55.950Z,15.60
2023-06-17T00:14:02.029Z,15.57
2023-06-17T00:19:05.480Z,15.51
2023-06-17T00:24:08.475Z,15.47
2023-06-17T00:29:12.636Z,15.47
2023-06-17T00:34:15.665Z,15.42
2023-06-17T00:39:18.513Z,15.37
2023-06-17T00:44:23.436Z,15.35
2023-06-17T00:49:34.935Z,15.34
2023-06-17T00:54:38.901Z,15.32
2023-06-17T00:59:44.994Z,15.32
2023-06-17T01:04:48.500Z,15.32
2023-06-17T01:09:56.591Z,15.26
2023-06-17T01:15:02.251Z,15.15
2023-06-17T01:20:07.189Z,15.03
2023-06-17T01:25:14.226Z,15.04
2023-06-17T01:30:17.685Z,14.93
2023-06-17T01:35:20.724Z,14.93
2023-06-17T01:40:25.809Z,14.83
2023-06-17T01:45:29.054Z,14.84
2023-06-17T01:50:31.820Z,14.78
2023-06-17T01:55:36.133Z,14.72
2023-06-17T02:00:38.944Z,14.71
2023-06-17T02:05:41.797Z,14.69
2023-06-17T02:10:45.972Z,14.61
2023-06-17T02:15:48.805Z,14.46
2023-06-17T02:20:51.848Z,14.44
2023-06-17T02:25:57.654Z,14.38
2023-06-17T02:31:01.621Z,14.31
2023-06-17T02:36:04.792Z,14.35
2023-06-17T02:41:09.356Z,14.28
2023-06-17T02:46:13.609Z,14.26
2023-06-17T02:51:16.811Z,14.25
2023-06-17T02:56:21.234Z,14.30
2023-06-17T03:01:24.514Z,14.28
2023-06-17T03:06:27.681Z,14.34
2023-06-17T03:11:32.031Z,14.43
2023-06-17T03:16:41.662Z,14.52
2023-06-17T03:21:46.201Z,14.60
2023-06-17T03:26:51.010Z,14.64
2023-06-17T03:31:57.944Z,14.80
2023-06-17T03:37:02.750Z,14.86
2023-06-17T03:42:07.737Z,14.93
2023-06-17T03:47:11.833Z,14.91
2023-06-17T03:52:15.954Z,14.85
2023-06-17T03:57:20.191Z,14.86
2023-06-17T04:02:23.652Z,15.02
2023-06-17T04:07:28.536Z,15.09
2023-06-17T04:12:32.671Z,15.12
2023-06-17T04:17:38.085Z,15.18
2023-06-17T04:22:41.745Z,15.16
2023-06-17T04:27:46.695Z,15.05
2023-06-17T04:32:51.283Z,15.13
2023-06-17T04:37:55.664Z,15.14
2023-06-17T04:43:00.792Z,15.18
2023-06-17T04:48:06.912Z,15.26
2023-06-17T04:53:11.355Z,15.37
2023-06-17T04:58:16.135Z,15.34
2023-06-17T05:03:22.336Z,15.26
2023-06-17T05:08:27.421Z,15.26
2023-06-17T05:13:31.838Z,15.29
2023-06-17T05:18:35.556Z,15.33
2023-06-17T05:23:39.053Z,15.42
2023-06-17T05:28:44.769Z,15.48
2023-06-17T05:33:47.761Z,15.72
2023-06-17T05:38:50.698Z,15.95
2023-06-17T05:43:55.099Z,15.93
2023-06-17T05:48:58.589Z,16.19
2023-06-17T05:54:01.523Z,16.33
2023-06-17T05:59:06.836Z,16.46
2023-06-17T06:04:15.294Z,16.57
2023-06-17T06:09:18.254Z,16.59
2023-06-17T06:14:22.643Z,16.76
2023-06-17T06:19:26.940Z,16.90
2023-06-17T06:24:29.772Z,16.93
2023-06-17T06:29:34.094Z,17.22
2023-06-17T06:34:36.995Z,17.47
2023-06-17T06:39:40.251Z,17.93
2023-06-17T06:44:45.307Z,17.97
2023-06-17T06:49:52.924Z,17.64
2023-06-17T06:54:56.552Z,17.66
2023-06-17T07:00:01.006Z,17.48
2023-06-17T07:05:05.156Z,17.43
2023-06-17T07:10:14.778Z,17.42
2023-06-17T07:15:18.990Z,17.59
2023-06-17T07:20:24.434Z,17.56
2023-06-17T07:25:27.442Z,17.42
2023-06-17T07:30:31.790Z,17.56
2023-06-17T07:35:34.982Z,17.83
2023-06-17T07:40:38.624Z,18.26
2023-06-17T07:45:42.858Z,18.28
2023-06-17T07:50:46.038Z,18.29
2023-06-17T07:55:49.011Z,18.68
2023-06-17T08:00:53.371Z,19.15
2023-06-17T08:05:56.457Z,19.31
2023-06-17T08:10:59.240Z,19.67
2023-06-17T08:16:03.796Z,20.00
2023-06-17T08:21:06.925Z,19.83
2023-06-17T08:26:09.715Z,19.89
2023-06-17T08:31:14.013Z,19.73
2023-06-17T08:36:17.052Z,19.77
2023-06-17T08:41:20.128Z,20.05
2023-06-17T08:46:25.965Z,20.24
2023-06-17T08:51:29.517Z,20.65
2023-06-17T08:56:32.341Z,20.80
2023-06-17T09:01:37.421Z,21.01
2023-06-17T09:06:41.004Z,21.15
2023-06-17T09:11:52.416Z,20.98
2023-06-17T09:16:57.269Z,20.97
2023-06-17T09:22:06.985Z,21.48
2023-06-17T09:27:16.898Z,21.76
2023-06-17T09:32:21.198Z,21.68
2023-06-17T09:37:24.027Z,21.80
2023-06-17T09:42:31.936Z,21.80
2023-06-17T09:47:38.576Z,22.05
2023-06-17T09:52:41.528Z,22.15
2023-06-17T09:57:44.810Z,22.18
2023-06-17T10:02:48.988Z,22.10
2023-06-17T10:07:53.529Z,21.52
2023-06-17T10:12:57.642Z,21.97
2023-06-17T10:18:02.767Z,21.98
2023-06-17T10:23:06.095Z,22.44
2023-06-17T10:28:09.130Z,22.64
2023-06-17T10:33:13.853Z,22.71
2023-06-17T10:38:29.748Z,22.73
2023-06-17T10:43:38.168Z,23.06
2023-06-17T10:48:42.515Z,23.08
2023-06-17T10:53:49.912Z,23.79
2023-06-17T10:58:53.054Z,23.69
2023-06-17T11:04:00.727Z,23.18
2023-06-17T11:09:05.836Z,22.41
2023-06-17T11:14:08.637Z,22.79
2023-06-17T11:19:14.736Z,23.38
2023-06-17T11:24:17.614Z,23.46
2023-06-17T11:29:20.763Z,23.03
2023-06-17T11:34:25.014Z,23.86
2023-06-17T11:39:30.617Z,24.32
2023-06-17T11:44:34.441Z,23.22
2023-06-17T11:49:42.664Z,22.65
2023-06-17T11:54:49.717Z,22.29
2023-06-17T11:59:53.364Z,23.07
2023-06-17T12:05:02.331Z,23.20
2023-06-17T12:10:05.745Z,23.65
2023-06-17T12:20:19.375Z,24.70
2023-06-17T12:25:23.253Z,24.89
2023-06-17T12:30:26.267Z,25.00
2023-06-17T12:35:30.859Z,25.65
2023-06-17T12:40:35.676Z,25.88
2023-06-17T12:45:41.983Z,26.24
2023-06-17T12:50:47.457Z,26.79
2023-06-17T12:55:50.395Z,26.74
2023-06-17T13:00:53.257Z,26.91
2023-06-17T13:05:57.537Z,28.08
2023-06-17T13:11:00.677Z,28.46
2023-06-17T13:16:03.904Z,28.59
2023-06-17T13:21:08.373Z,27.49
2023-06-17T13:26:11.446Z,26.56
2023-06-17T13:31:14.339Z,26.59
2023-06-17T13:36:18.692Z,26.04
2023-06-17T13:41:22.142Z,26.73
2023-06-17T13:46:25.046Z,27.39
2023-06-17T13:51:29.379Z,28.10
2023-06-17T13:56:32.245Z,28.44
2023-06-17T14:01:35.038Z,28.80
2023-06-17T14:06:39.784Z,29.07
2023-06-17T14:11:42.821Z,29.16
2023-06-17T14:16:45.779Z,29.57
2023-06-17T14:21:57.011Z,30.16
2023-06-17T14:27:30.876Z,31.21
2023-06-17T14:32:33.824Z,36.35
2023-06-17T14:37:38.430Z,46.32
2023-06-17T14:42:43.705Z,50.54
2023-06-17T14:47:46.803Z,51.70
2023-06-17T14:52:51.400Z,52.84
2023-06-17T14:57:54.305Z,53.76
2023-06-17T15:03:00.990Z,44.74
2023-06-17T15:08:06.048Z,38.54
2023-06-17T15:13:09.207Z,37.49
2023-06-17T15:18:12.222Z,39.58
2023-06-17T15:23:17.036Z,33.60
2023-06-17T15:28:19.979Z,35.71
2023-06-17T15:33:24.004Z,47.99
2023-06-17T15:38:28.203Z,51.82
2023-06-17T15:43:31.243Z,55.73
2023-06-17T15:48:35.527Z,54.36
2023-06-17T15:53:39.797Z,46.96
2023-06-17T15:58:42.718Z,34.60
2023-06-17T16:03:45.890Z,42.19
2023-06-17T16:08:50.105Z,49.91
2023-06-17T16:13:52.984Z,51.10
2023-06-17T16:18:55.961Z,47.03
2023-06-17T16:24:00.366Z,39.48
2023-06-17T16:29:03.246Z,43.39
2023-06-17T16:34:06.261Z,38.73
2023-06-17T16:39:11.100Z,34.62
2023-06-17T16:44:13.952Z,32.94
2023-06-17T16:49:16.931Z,32.65
2023-06-17T16:54:21.168Z,31.69
2023-06-17T16:59:24.965Z,32.46
2023-06-17T17:04:28.224Z,31.34
2023-06-17T17:09:32.504Z,30.63
2023-06-17T17:14:35.891Z,29.62
2023-06-17T17:19:38.759Z,28.99
2023-06-17T17:24:44.034Z,28.81
2023-06-17T17:29:47.488Z,28.08
2023-06-17T17:34:50.377Z,27.81
2023-06-17T17:39:54.673Z,27.07
2023-06-17T17:44:57.522Z,26.86
2023-06-17T17:50:00.317Z,26.39
2023-06-17T17:55:04.730Z,26.46
2023-06-17T18:00:09.533Z,26.24
2023-06-17T18:05:19.297Z,26.33
2023-06-17T18:10:23.966Z,26.38
2023-06-17T18:15:27.090Z,26.16
2023-06-17T18:20:29.898Z,25.76
2023-06-17T18:25:34.105Z,25.08
2023-06-17T18:30:36.979Z,24.67
2023-06-17T18:35:39.847Z,24.54
2023-06-17T18:40:44.015Z,24.23
2023-06-17T18:45:46.844Z,23.92
2023-06-17T18:50:50.033Z,23.62
2023-06-17T18:55:54.228Z,23.28
2023-06-17T19:00:57.190Z,23.17
2023-06-17T19:06:00.185Z,22.94
2023-06-17T19:11:04.501Z,22.45
2023-06-17T19:16:07.648Z,22.16
2023-06-17T19:21:10.895Z,22.07
2023-06-17T19:26:15.727Z,21.94
2023-06-17T19:31:22.098Z,21.72
2023-06-17T19:36:25.136Z,21.38
2023-06-17T19:41:30.595Z,21.21
2023-06-17T19:46:33.379Z,21.04
2023-06-17T19:51:36.274Z,20.86
2023-06-17T19:56:40.664Z,20.86
2023-06-17T20:01:43.714Z,20.74
2023-06-17T20:06:46.498Z,20.59
2023-06-17T20:11:51.471Z,20.41
2023-06-17T20:16:54.828Z,20.27
2023-06-17T20:21:57.660Z,20.14
2023-06-17T20:27:01.962Z,19.87
2023-06-17T20:32:05.388Z,19.60
2023-06-17T20:37:08.182Z,19.60
2023-06-17T20:42:13.110Z,19.63
2023-06-17T20:47:16.275Z,19.56
2023-06-17T20:52:19.166Z,19.36
2023-06-17T20:57:23.598Z,19.33
2023-06-17T21:02:26.558Z,19.26
2023-06-17T21:07:29.442Z,19.14
2023-06-17T21:12:33.895Z,18.97
2023-06-17T21:17:37.349Z,18.89
2023-06-17T21:22:40.289Z,18.69
2023-06-17T21:27:44.590Z,18.62
2023-06-17T21:32:47.436Z,18.56
2023-06-17T21:37:50.281Z,18.48
2023-06-17T21:42:54.430Z,18.27
2023-06-17T21:47:57.272Z,18.07
2023-06-17T21:53:00.119Z,18.06
2023-06-17T21:58:04.345Z,17.83
2023-06-17T22:03:07.154Z,17.81
2023-06-17T22:08:10.186Z,17.69
2023-06-17T22:13:14.323Z,17.59
2023-06-17T22:18:17.517Z,17.56
2023-06-17T22:23:20.980Z,17.59
2023-06-17T22:28:25.166Z,17.52
2023-06-17T22:33:27.912Z,17.47
2023-06-17T22:38:30.722Z,17.31
2023-06-17T22:43:34.900Z,17.20
2023-06-17T22:48:37.744Z,17.03
2023-06-17T22:53:40.634Z,17.01
2023-06-17T22:58:45.846Z,17.09
2023-06-17T23:03:48.626Z,17.01
2023-06-17T23:08:51.589Z,16.92
2023-06-17T23:13:55.827Z,16.90
2023-06-17T23:18:58.591Z,16.82
2023-06-17T23:24:01.517Z,16.77
2023-06-17T23:29:06.943Z,16.70
2023-06-17T23:34:10.202Z,16.64
2023-06-17T23:39:13.594Z,16.62
2023-06-17T23:44:18.673Z,16.77
2023-06-17T23:49:21.453Z,16.66
2023-06-17T23:54:24.298Z,16.65
2023-06-17T23:59:30.667Z,16.64
